createdAt,value
2023-01-08T16:24:28.895Z,-9.27
2023-01-08T16:26:56.833Z,-9.30
2023-01-08T16:29:24.661Z,-9.27
2023-01-08T16:31:52.174Z,-9.27
2023-01-08T16:34:19.655Z,-9.25
2023-01-08T16:36:48.456Z,-9.26
2023-01-08T16:39:16.416Z,-9.24
2023-01-08T16:41:44.534Z,-9.21
2023-01-08T16:44:24.380Z,-9.18
2023-01-08T16:46:53.374Z,-9.17
2023-01-08T16:49:21.307Z,-9.14
2023-01-08T16:51:49.354Z,-9.14
2023-01-08T16:54:17.674Z,-9.13
2023-01-08T16:56:45.825Z,-9.10
2023-01-08T16:59:22.725Z,-9.09
2023-01-08T17:01:51.910Z,-9.10
2023-01-08T17:04:20.281Z,-9.08
2023-01-08T17:06:47.943Z,-9.07
2023-01-08T17:09:15.705Z,-9.02
2023-01-08T17:11:43.779Z,-9.02
2023-01-08T17:14:13.046Z,-8.99
2023-01-08T17:16:45.430Z,-8.98
2023-01-08T17:19:13.484Z,-8.98
2023-01-08T17:21:41.674Z,-8.95
2023-01-08T17:24:10.016Z,-8.93
2023-01-08T17:26:37.812Z,-8.91
2023-01-08T17:29:06.093Z,-8.90
2023-01-08T17:31:39.919Z,-8.91
2023-01-08T17:34:12.195Z,-8.89
2023-01-08T17:36:39.737Z,-8.87
2023-01-08T17:39:07.488Z,-8.80
2023-01-08T17:41:56.259Z,-8.82
2023-01-08T17:44:26.331Z,-8.80
2023-01-08T17:46:53.842Z,-8.79
2023-01-08T17:49:21.740Z,-8.77
2023-01-08T17:51:50.338Z,-8.72
2023-01-08T17:54:19.815Z,-8.71
2023-01-08T17:56:48.961Z,-8.72
2023-01-08T17:59:18.283Z,-8.69
2023-01-08T18:01:47.949Z,-8.70
2023-01-08T18:04:16.192Z,-8.65
2023-01-08T18:06:44.843Z,-8.65
2023-01-08T18:09:13.153Z,-8.61
2023-01-08T18:11:42.173Z,-8.60
2023-01-08T18:14:12.131Z,-8.57
2023-01-08T18:16:45.360Z,-8.54
2023-01-08T18:19:13.934Z,-8.55
2023-01-08T18:21:43.577Z,-8.54
2023-01-08T18:24:11.311Z,-8.52
2023-01-08T18:26:39.065Z,-8.48
2023-01-08T18:29:07.195Z,-8.52
2023-01-08T18:31:35.396Z,-8.49
2023-01-08T18:34:03.897Z,-8.42
2023-01-08T18:36:31.368Z,-8.43
2023-01-08T18:39:00.244Z,-8.43
2023-01-08T18:41:45.989Z,-8.41
2023-01-08T18:44:14.738Z,-8.41
2023-01-08T18:46:42.561Z,-8.38
2023-01-08T18:49:10.573Z,-8.34
2023-01-08T18:51:38.591Z,-8.34
2023-01-08T18:54:08.372Z,-8.30
2023-01-08T18:56:37.587Z,-8.28
2023-01-08T18:59:07.356Z,-8.25
2023-01-08T19:01:35.814Z,-8.23
2023-01-08T19:04:04.033Z,-8.20
2023-01-08T19:06:31.778Z,-8.17
2023-01-08T19:09:00.386Z,-8.16
2023-01-08T19:11:28.943Z,-8.14
2023-01-08T19:13:57.556Z,-8.09
2023-01-08T19:16:25.838Z,-8.08
2023-01-08T19:18:54.198Z,-8.07
2023-01-08T19:21:21.990Z,-8.05
2023-01-08T19:23:49.601Z,-8.00
2023-01-08T19:26:17.814Z,-8.01
2023-01-08T19:28:46.096Z,-7.98
2023-01-08T19:31:16.861Z,-7.97
2023-01-08T19:33:46.326Z,-7.97
2023-01-08T19:36:16.419Z,-7.98
2023-01-08T19:38:44.725Z,-7.97
2023-01-08T19:41:32.276Z,-7.97
2023-01-08T19:44:00.369Z,-7.98
2023-01-08T19:46:28.966Z,-7.95
2023-01-08T19:49:00.805Z,-7.92
2023-01-08T19:51:30.015Z,-7.93
2023-01-08T19:53:58.531Z,-7.93
2023-01-08T19:56:26.684Z,-7.88
2023-01-08T19:58:56.708Z,-7.89
2023-01-08T20:01:27.282Z,-7.88
2023-01-08T20:03:56.663Z,-7.87
2023-01-08T20:06:26.202Z,-7.82
2023-01-08T20:08:58.433Z,-7.82
2023-01-08T20:11:27.504Z,-7.80
2023-01-08T20:13:56.129Z,-7.79
2023-01-08T20:16:24.581Z,-7.79
2023-01-08T20:18:55.958Z,-7.76
2023-01-08T20:21:24.128Z,-7.75
2023-01-08T20:24:14.270Z,-7.69
2023-01-08T20:26:46.615Z,-7.67
2023-01-08T20:29:16.646Z,-7.65
2023-01-08T20:31:44.568Z,-7.63
2023-01-08T20:34:15.587Z,-7.64
2023-01-08T20:36:44.548Z,-7.62
2023-01-08T20:39:16.050Z,-7.62
2023-01-08T20:41:50.351Z,-7.64
2023-01-08T20:44:29.019Z,-7.60
2023-01-08T20:46:56.743Z,-7.58
2023-01-08T20:49:26.606Z,-7.58
2023-01-08T20:51:59.144Z,-7.58
2023-01-08T20:54:29.904Z,-7.54
2023-01-08T20:56:59.164Z,-7.53
2023-01-08T20:59:27.982Z,-7.56
2023-01-08T21:01:57.152Z,-7.55
2023-01-08T21:04:25.184Z,-7.53
2023-01-08T21:06:52.953Z,-7.51
2023-01-08T21:09:20.809Z,-7.52
2023-01-08T21:11:48.403Z,-7.47
2023-01-08T21:14:16.025Z,-7.47
2023-01-08T21:16:43.994Z,-7.46
2023-01-08T21:19:11.690Z,-7.45
2023-01-08T21:21:40.833Z,-7.41
2023-01-08T21:24:11.791Z,-7.34
2023-01-08T21:26:39.388Z,-7.37
2023-01-08T21:29:09.023Z,-7.33
2023-01-08T21:31:37.946Z,-7.32
2023-01-08T21:34:06.317Z,-7.29
2023-01-08T21:36:33.715Z,-7.27
2023-01-08T21:39:02.035Z,-7.25
2023-01-08T21:41:48.712Z,-7.26
2023-01-08T21:44:38.427Z,-7.22
2023-01-08T21:47:09.116Z,-7.22
2023-01-08T21:49:37.054Z,-7.19
2023-01-08T21:52:24.304Z,-7.16
2023-01-08T21:54:51.938Z,-7.17
2023-01-08T21:57:19.892Z,-7.15
2023-01-08T21:59:51.239Z,-7.20
2023-01-08T22:02:21.516Z,-7.20
2023-01-08T22:04:49.259Z,-7.11
2023-01-08T22:07:17.218Z,-7.15
2023-01-08T22:09:44.667Z,-7.12
2023-01-08T22:12:14.134Z,-7.19
2023-01-08T22:14:41.605Z,-7.22
2023-01-08T22:17:09.337Z,-7.21
2023-01-08T22:19:40.630Z,-7.22
2023-01-08T22:22:10.506Z,-7.18
2023-01-08T22:24:39.714Z,-7.20
2023-01-08T22:27:08.178Z,-7.25
2023-01-08T22:29:36.956Z,-7.26
2023-01-08T22:32:05.218Z,-7.24
2023-01-08T22:34:34.403Z,-7.25
2023-01-08T22:37:02.301Z,-7.28
2023-01-08T22:39:30.186Z,-7.29
2023-01-08T22:41:58.017Z,-7.25
2023-01-08T22:44:25.806Z,-7.22
2023-01-08T22:46:53.526Z,-7.22
2023-01-08T22:49:20.972Z,-7.23
2023-01-08T22:51:48.426Z,-7.24
2023-01-08T22:54:18.015Z,-7.22
2023-01-08T22:56:45.470Z,-7.22
2023-01-08T22:59:13.143Z,-7.26
2023-01-08T23:01:41.201Z,-7.25
2023-01-08T23:04:08.827Z,-7.29
2023-01-08T23:06:36.784Z,-7.29
2023-01-08T23:09:04.779Z,-7.25
2023-01-08T23:11:32.679Z,-7.31
2023-01-08T23:14:00.894Z,-7.30
2023-01-08T23:16:28.466Z,-7.26
2023-01-08T23:18:56.715Z,-7.31
2023-01-08T23:21:25.858Z,-7.26
2023-01-08T23:23:53.635Z,-7.31
2023-01-08T23:26:23.998Z,-7.34
2023-01-08T23:28:53.166Z,-7.32
2023-01-08T23:31:25.048Z,-7.33
2023-01-08T23:33:53.575Z,-7.40
2023-01-08T23:36:22.496Z,-7.39
2023-01-08T23:38:54.933Z,-7.38
2023-01-08T23:41:32.007Z,-7.34
2023-01-08T23:44:03.156Z,-7.40
2023-01-08T23:46:30.695Z,-7.35
2023-01-08T23:48:58.479Z,-7.32
2023-01-08T23:51:26.068Z,-7.38
2023-01-08T23:53:53.803Z,-7.36
2023-01-08T23:56:27.203Z,-7.39
2023-01-08T23:58:55.198Z,-7.39
